Time;durP1;ratioP1;P1;durP2;ratioP2;P2;SDS_P1;SDS_P2;PMS_P1;PMS_P2;Temp;Humidity;BMP_temperature;BMP_pressure;BME280_temperature;BME280_humidity;BME280_pressure;Samples;Min_cycle;Max_cycle;Signal;HPM_P1;HPM_P2
2021/12/13 00:01:10;;;;;;;;;;;;;;;;;;;;;
2021/12/13 00:05:50;;;;;;;;;;;;;;;1.98;60.73;100450.25;4291967;33;33387;-82
2021/12/13 00:12:15;;;;;;;;;;;;;;;1.72;60.84;100453.28;4294662;33;35328;-83
2021/12/13 00:31:41;;;;;;;;;;;;;;;2.06;60.27;100442.84;4384348;32;34077;-82
2021/12/13 00:37:57;;;;;;;;;;;;;;;1.48;61.54;100444.78;4392131;32;33854;-83
2021/12/13 00:51:25;;;;;;;;;;;;;;;1.62;61.36;100446.75;4388204;32;34368;-82
2021/12/13 00:54:34;;;;;;;;;;;;;;;;;;;;;
2021/12/13 00:57:55;;;;;;;;;;;;;;;1.61;61.35;100459.00;4394716;32;32553;-81
2021/12/13 01:17:27;;;;;;;;;;;;;;;1.60;60.98;100461.72;4346557;32;34936;-81
2021/12/13 01:20:00;;;;;;;;;;;;;;;1.28;62.27;100459.75;4353264;32;35741;-81
2021/12/13 01:22:42;;;;;;;;;;;;;;;1.29;62.42;100456.19;4349538;32;31568;-80
2021/12/13 01:25:19;;;;;;;;;;;;;;;1.54;61.60;100462.88;4357343;32;34952;-81
2021/12/13 01:28:09;;;;;;;;;;;;;;;1.61;60.85;100450.31;4377866;32;36516;-81
2021/12/13 01:30:38;;;;;;;;;;;;;;;1.55;61.14;100446.22;4367832;32;34416;-81
2021/12/13 01:33:07;;;;;;;;;;;;;;;1.75;60.74;100458.34;4368722;32;34061;-81
2021/12/13 01:35:40;;;;;;;;;;;;;;;1.56;60.91;100458.41;4364612;32;32749;-80
2021/12/13 01:38:10;;;;;;;;;;;;;;;1.98;60.06;100458.94;4373533;32;34426;-81
2021/12/13 01:40:38;;;;;;;;;;;;;;;1.95;60.16;100458.25;4375205;32;34510;-81
2021/12/13 01:43:07;;;;;;;;;;;;;;;1.99;59.73;100450.16;4367824;32;33274;-81
2021/12/13 01:45:37;;;;;;;;;;;;;;;2.06;59.84;100458.59;4369600;32;33463;-81
2021/12/13 01:48:05;;;;;;;;;;;;;;;2.12;59.22;100463.53;4367944;32;36000;-80
2021/12/13 01:50:44;;;;;;;;;;;;;;;2.13;59.16;100463.44;4375462;32;35333;-81
2021/12/13 01:53:12;;;;;;;;;;;;;;;1.93;59.91;100467.97;4371229;32;32738;-81
2021/12/13 01:55:41;;;;;;;;;;;;;;;2.08;59.31;100464.59;4367181;32;33845;-81
2021/12/13 02:01:09;;;;;;;;;;;;;;;2.28;58.64;100460.09;4373893;32;34088;-80
2021/12/13 02:03:43;;;;;;;;;;;;;;;2.32;58.50;100463.38;4377946;32;34055;-81
2021/12/13 02:06:13;;;;;;;;;;;;;;;2.04;59.46;100466.53;4373186;32;33900;-81
2021/12/13 02:08:41;;;;;;;;;;;;;;;1.79;59.73;100476.50;4379013;32;34687;-82
2021/12/13 02:11:09;;;;;;;;;;;;;;;2.26;58.82;100472.41;4375200;32;34823;-80
2021/12/13 02:13:42;;;;;;;;;;;;;;;2.38;58.06;100465.69;4372308;32;33475;-80
2021/12/13 02:18:57;;;;;;;;;;;;;;;2.35;58.27;100469.31;4377752;32;35430;-81
2021/12/13 02:21:30;;;;;;;;;;;;;;;2.00;59.17;100477.25;4377824;32;34155;-81
2021/12/13 02:24:08;;;;;;;;;;;;;;;1.78;59.82;100481.84;4374275;32;33312;-81
2021/12/13 02:26:38;;;;;;;;;;;;;;;1.99;59.47;100483.44;4353163;32;33803;-80
2021/12/13 02:29:34;;;;;;;;;;;;;;;1.96;59.27;100486.22;4380540;32;36160;-81
2021/12/13 02:32:08;;;;;;;;;;;;;;;2.11;58.81;100485.44;4367996;32;33623;-81
2021/12/13 02:34:37;;;;;;;;;;;;;;;2.00;59.29;100482.50;4364259;32;33988;-80
2021/12/13 02:37:05;;;;;;;;;;;;;;;2.24;58.76;100486.56;4366377;32;33196;-80
2021/12/13 02:39:34;;;;;;;;;;;;;;;2.12;58.73;100476.63;4369924;32;35421;-80
2021/12/13 02:42:03;;;;;;;;;;;;;;;2.13;58.81;100480.97;4373456;32;34901;-80
2021/12/13 02:44:37;;;;;;;;;;;;;;;2.10;59.09;100487.22;4361118;32;32700;-80
2021/12/13 02:47:15;;;;;;;;;;;;;;;1.59;60.02;100486.25;4370234;32;34274;-80
2021/12/13 02:49:43;;;;;;;;;;;;;;;1.86;59.77;100487.53;4355275;32;35855;-80
2021/12/13 02:52:14;;;;;;;;;;;;;;;1.94;59.30;100485.41;4365651;32;34637;-81
2021/12/13 02:54:46;;;;;;;;;;;;;;;1.84;59.90;100479.78;4367247;32;33076;-81
2021/12/13 02:57:15;;;;;;;;;;;;;;;1.93;59.59;100484.56;4368849;32;33330;-80
2021/12/13 02:59:44;;;;;;;;;;;;;;;2.21;59.00;100484.06;4373778;32;34863;-80
2021/12/13 03:02:14;;;;;;;;;;;;;;;2.27;58.73;100489.84;4367577;32;35013;-80
2021/12/13 03:04:43;;;;;;;;;;;;;;;2.18;59.10;100486.84;4374709;32;33836;-80
2021/12/13 03:07:14;;;;;;;;;;;;;;;2.03;59.16;100484.97;4378004;32;33540;-80
2021/12/13 03:09:43;;;;;;;;;;;;;;;1.61;60.20;100479.16;4368056;32;35642;-80
2021/12/13 03:12:11;;;;;;;;;;;;;;;1.75;59.69;100480.19;4382128;32;33521;-80
2021/12/13 03:14:43;;;;;;;;;;;;;;;1.93;59.39;100479.31;4378103;32;33402;-81
2021/12/13 03:17:22;;;;;;;;;;;;;;;1.72;60.03;100477.75;4375288;32;33981;-80
2021/12/13 03:19:54;;;;;;;;;;;;;;;1.60;60.39;100469.59;4355040;32;35621;-80
2021/12/13 03:22:41;;;;;;;;;;;;;;;1.92;59.62;100472.38;4367224;32;35133;-81
2021/12/13 03:25:11;;;;;;;;;;;;;;;1.92;59.42;100482.88;4375796;32;32325;-80
2021/12/13 03:27:42;;;;;;;;;;;;;;;1.97;59.41;100470.38;4371851;32;34668;-81
2021/12/13 03:30:11;;;;;;;;;;;;;;;2.25;58.63;100472.50;4367779;32;35394;-82
2021/12/13 03:32:42;;;;;;;;;;;;;;;2.06;58.93;100462.03;4367145;32;34437;-81
2021/12/13 03:35:14;;;;;;;;;;;;;;;2.43;58.36;100464.53;4373079;32;33409;-81
2021/12/13 03:37:53;;;;;;;;;;;;;;;2.38;58.34;100471.81;4379245;32;34206;-81
2021/12/13 03:40:21;;;;;;;;;;;;;;;2.21;58.76;100474.44;4374948;32;36137;-80
2021/12/13 03:42:50;;;;;;;;;;;;;;;2.32;58.10;100476.50;4374619;32;34603;-80
2021/12/13 03:45:20;;;;;;;;;;;;;;;2.48;57.81;100485.31;4362125;32;33754;-80
2021/12/13 03:47:50;;;;;;;;;;;;;;;2.33;58.49;100486.09;4374465;32;34675;-80
2021/12/13 03:50:20;;;;;;;;;;;;;;;2.00;59.45;100485.97;4366906;32;35978;-80
2021/12/13 03:52:48;;;;;;;;;;;;;;;1.94;59.66;100486.28;4371842;32;35503;-80
2021/12/13 03:55:17;;;;;;;;;;;;;;;2.25;59.03;100488.25;4366743;32;32950;-80
2021/12/13 03:57:56;;;;;;;;;;;;;;;2.11;59.12;100486.31;4380040;32;34968;-80
2021/12/13 04:00:26;;;;;;;;;;;;;;;2.09;59.34;100490.78;4366448;32;34019;-80
2021/12/13 04:02:54;;;;;;;;;;;;;;;2.16;59.13;100484.28;4368646;32;35765;-80
2021/12/13 04:05:22;;;;;;;;;;;;;;;2.01;59.58;100490.31;4368570;32;32816;-81
2021/12/13 04:07:51;;;;;;;;;;;;;;;1.81;60.09;100490.38;4372336;32;35097;-81
2021/12/13 04:10:22;;;;;;;;;;;;;;;2.05;60.08;100501.50;4368013;32;36171;-79
2021/12/13 04:12:52;;;;;;;;;;;;;;;2.14;60.00;100501.03;4372127;32;35493;-81
2021/12/13 04:15:34;;;;;;;;;;;;;;;1.85;60.60;100498.97;4361424;32;33135;-80
2021/12/13 04:18:27;;;;;;;;;;;;;;;2.01;59.93;100506.06;4367109;32;34064;-80
2021/12/13 04:21:02;;;;;;;;;;;;;;;2.23;59.11;100496.19;4362860;32;35810;-80
2021/12/13 04:23:30;;;;;;;;;;;;;;;2.31;58.81;100504.53;4366716;32;34747;-80
2021/12/13 04:25:58;;;;;;;;;;;;;;;2.20;58.83;100504.22;4368766;32;33431;-80
2021/12/13 04:28:31;;;;;;;;;;;;;;;2.09;59.46;100503.03;4369204;32;33840;-80
2021/12/13 04:31:00;;;;;;;;;;;;;;;2.20;59.28;100500.75;4361490;32;35145;-80
2021/12/13 04:33:29;;;;;;;;;;;;;;;2.35;59.14;100511.34;4371699;32;34775;-79
2021/12/13 04:35:58;;;;;;;;;;;;;;;2.03;60.15;100500.72;4370975;32;32708;-80
2021/12/13 04:38:28;;;;;;;;;;;;;;;2.28;59.73;100509.09;4370418;32;34078;-80
2021/12/13 04:40:55;;;;;;;;;;;;;;;2.15;59.90;100508.00;4368940;32;34277;-82
2021/12/13 04:43:22;;;;;;;;;;;;;;;2.05;60.48;100498.88;4369129;32;32965;-80
2021/12/13 04:45:54;;;;;;;;;;;;;;;1.83;61.39;100500.81;4379932;32;33269;-80
2021/12/13 04:48:24;;;;;;;;;;;;;;;1.89;61.39;100500.53;4369595;32;33349;-80
2021/12/13 04:51:08;;;;;;;;;;;;;;;1.87;61.43;100503.22;4370607;32;35849;-80
2021/12/13 04:53:58;;;;;;;;;;;;;;;2.04;61.04;100502.41;4369551;32;35512;-80
2021/12/13 04:56:27;;;;;;;;;;;;;;;2.18;60.56;100492.09;4370145;32;33166;-80
2021/12/13 04:58:55;;;;;;;;;;;;;;;2.25;60.37;100506.62;4368536;32;33558;-80
2021/12/13 05:01:25;;;;;;;;;;;;;;;2.31;60.31;100506.31;4368105;32;34521;-81
2021/12/13 05:03:54;;;;;;;;;;;;;;;1.93;61.50;100510.81;4369755;32;34240;-80
2021/12/13 05:06:26;;;;;;;;;;;;;;;2.05;61.04;100507.59;4374209;32;34038;-81
2021/12/13 05:08:56;;;;;;;;;;;;;;;2.00;61.38;100512.22;4355901;32;31981;-80
2021/12/13 05:11:28;;;;;;;;;;;;;;;2.12;61.14;100516.00;4374341;32;35758;-81
2021/12/13 05:13:56;;;;;;;;;;;;;;;2.39;60.22;100526.03;4369908;32;35304;-80
2021/12/13 05:16:39;;;;;;;;;;;;;;;1.96;61.56;100521.16;4377056;32;33567;-81
2021/12/13 05:19:08;;;;;;;;;;;;;;;1.48;62.96;100527.81;4364636;32;33499;-81
2021/12/13 05:21:37;;;;;;;;;;;;;;;2.27;60.90;100521.34;4365699;32;35023;-80
2021/12/13 05:24:06;;;;;;;;;;;;;;;1.84;61.74;100527.00;4366982;32;34247;-80
2021/12/13 05:26:33;;;;;;;;;;;;;;;1.44;63.40;100531.53;4368228;32;32528;-80
2021/12/13 05:29:04;;;;;;;;;;;;;;;1.59;63.03;100536.91;4377607;32;33836;-81
2021/12/13 05:31:32;;;;;;;;;;;;;;;1.73;62.60;100538.91;4368037;32;35974;-80
2021/12/13 05:34:02;;;;;;;;;;;;;;;1.90;61.97;100545.03;4375779;32;34787;-80
2021/12/13 05:36:31;;;;;;;;;;;;;;;1.86;62.00;100540.88;4367907;32;33411;-80
2021/12/13 05:39:01;;;;;;;;;;;;;;;2.09;61.51;100540.66;4369515;32;33885;-81
2021/12/13 05:41:29;;;;;;;;;;;;;;;2.31;61.04;100543.06;4384054;32;35677;-80
2021/12/13 05:43:57;;;;;;;;;;;;;;;2.18;61.22;100534.94;4361396;32;34854;-80
2021/12/13 05:46:31;;;;;;;;;;;;;;;2.28;61.10;100543.22;4374668;32;33959;-80
2021/12/13 05:49:01;;;;;;;;;;;;;;;2.23;61.14;100542.56;4375395;32;33312;-81
2021/12/13 05:51:33;;;;;;;;;;;;;;;2.12;61.38;100540.50;4372491;32;34857;-80
2021/12/13 05:54:01;;;;;;;;;;;;;;;1.76;62.74;100550.09;4370118;32;34072;-80
2021/12/13 05:56:32;;;;;;;;;;;;;;;2.24;61.63;100557.44;4372216;32;33386;-80
2021/12/13 05:59:08;;;;;;;;;;;;;;;2.37;61.30;100550.66;4365781;32;34161;-80
2021/12/13 06:01:40;;;;;;;;;;;;;;;2.12;62.01;100547.50;4370061;32;35991;-80
2021/12/13 06:04:13;;;;;;;;;;;;;;;2.16;62.58;100551.69;4377023;32;34504;-79
2021/12/13 06:06:48;;;;;;;;;;;;;;;2.21;62.51;100553.19;4367883;32;32479;-80
2021/12/13 06:09:35;;;;;;;;;;;;;;;2.28;62.32;100553.72;4367614;32;34112;-81
2021/12/13 06:12:04;;;;;;;;;;;;;;;2.31;61.99;100550.94;4370002;32;35057;-79
2021/12/13 06:14:32;;;;;;;;;;;;;;;2.32;62.02;100556.13;4375757;32;34067;-80
2021/12/13 06:17:04;;;;;;;;;;;;;;;2.39;61.58;100562.78;4365748;32;32016;-82
2021/12/13 06:19:34;;;;;;;;;;;;;;;2.38;61.94;100565.47;4367288;32;34137;-79
2021/12/13 06:22:04;;;;;;;;;;;;;;;1.87;63.50;100567.97;4370864;32;33529;-81
2021/12/13 06:24:34;;;;;;;;;;;;;;;1.88;63.61;100580.16;4381440;32;34017;-80
2021/12/13 06:27:05;;;;;;;;;;;;;;;2.13;62.83;100573.69;4367879;32;33477;-82
2021/12/13 06:29:51;;;;;;;;;;;;;;;2.21;62.82;100576.78;4373949;32;33414;-81
2021/12/13 06:32:23;;;;;;;;;;;;;;;2.21;63.22;100573.31;4368158;32;34813;-80
2021/12/13 06:34:51;;;;;;;;;;;;;;;2.31;62.96;100572.81;4373586;32;34022;-80
2021/12/13 06:37:23;;;;;;;;;;;;;;;2.27;63.05;100575.66;4373172;32;33289;-79
2021/12/13 06:40:01;;;;;;;;;;;;;;;2.14;63.45;100577.13;4369365;32;34572;-81
2021/12/13 06:42:29;;;;;;;;;;;;;;;2.03;63.90;100588.16;4368057;32;35034;-81
2021/12/13 06:44:56;;;;;;;;;;;;;;;2.20;63.67;100588.22;4368619;32;36300;-81
2021/12/13 06:47:24;;;;;;;;;;;;;;;2.06;63.92;100587.19;4367999;32;34127;-80
2021/12/13 06:49:53;;;;;;;;;;;;;;;2.45;62.89;100582.63;4383264;32;33956;-81
2021/12/13 06:52:23;;;;;;;;;;;;;;;2.31;63.27;100591.19;4364476;32;34739;-81
2021/12/13 06:54:55;;;;;;;;;;;;;;;2.14;64.10;100593.75;4368410;32;34882;-80
2021/12/13 06:57:29;;;;;;;;;;;;;;;2.37;63.58;100595.28;4368034;32;30681;-80
2021/12/13 07:00:00;;;;;;;;;;;;;;;2.14;64.27;100587.62;4367757;32;34003;-81
2021/12/13 07:02:42;;;;;;;;;;;;;;;2.20;64.18;100585.59;4379375;32;35692;-80
2021/12/13 07:05:14;;;;;;;;;;;;;;;2.32;63.70;100592.00;4375996;32;35188;-81
2021/12/13 07:07:54;;;;;;;;;;;;;;;2.48;63.14;100587.72;4376056;32;31370;-80
2021/12/13 07:10:42;;;;;;;;;;;;;;;2.64;62.42;100586.91;4367296;32;34330;-80
2021/12/13 07:13:19;;;;;;;;;;;;;;;2.80;62.00;100591.34;4360206;32;35903;-80
2021/12/13 07:15:47;;;;;;;;;;;;;;;2.77;62.10;100596.72;4372001;32;35313;-81
2021/12/13 07:18:17;;;;;;;;;;;;;;;2.83;61.99;100596.44;4368951;32;32531;-79
2021/12/13 07:20:46;;;;;;;;;;;;;;;2.70;62.60;100597.09;4363006;32;33790;-79
2021/12/13 07:23:14;;;;;;;;;;;;;;;2.49;63.44;100600.78;4369023;32;35369;-80
2021/12/13 07:25:42;;;;;;;;;;;;;;;2.89;62.37;100604.00;4368729;32;34258;-80
2021/12/13 07:28:10;;;;;;;;;;;;;;;2.56;63.42;100601.34;4359750;32;32718;-80
2021/12/13 07:30:38;;;;;;;;;;;;;;;2.78;62.64;100606.31;4364315;32;33556;-81
2021/12/13 07:33:07;;;;;;;;;;;;;;;2.79;63.14;100608.03;4367400;32;35319;-79
2021/12/13 07:35:36;;;;;;;;;;;;;;;2.40;64.78;100598.62;4371994;32;34739;-79
2021/12/13 07:38:05;;;;;;;;;;;;;;;2.68;64.00;100598.97;4364167;32;32743;-81
2021/12/13 07:40:50;;;;;;;;;;;;;;;2.89;63.43;100601.38;4366914;32;33480;-81
2021/12/13 07:43:26;;;;;;;;;;;;;;;2.95;63.04;100605.47;4366738;32;35437;-80
2021/12/13 07:46:09;;;;;;;;;;;;;;;3.02;63.15;100606.84;4366703;32;35471;-81
2021/12/13 07:48:36;;;;;;;;;;;;;;;3.07;63.17;100618.84;4369552;32;34687;-80
2021/12/13 07:51:10;;;;;;;;;;;;;;;3.02;63.16;100617.34;4369192;32;35059;-81
2021/12/13 07:53:41;;;;;;;;;;;;;;;2.99;63.98;100620.16;4369142;32;35832;-83
2021/12/13 07:56:10;;;;;;;;;;;;;;;3.31;62.81;100617.59;4371053;32;35377;-82
2021/12/13 07:58:43;;;;;;;;;;;;;;;3.51;62.49;100622.66;4374842;32;33004;-81
2021/12/13 08:01:22;;;;;;;;;;;;;;;3.58;62.41;100620.56;4369201;32;34027;-81
2021/12/13 08:03:57;;;;;;;;;;;;;;;3.37;62.87;100626.94;4376128;32;36120;-82
2021/12/13 08:06:25;;;;;;;;;;;;;;;3.40;62.76;100638.16;4366705;32;34164;-82
2021/12/13 08:08:55;;;;;;;;;;;;;;;3.57;62.46;100624.09;4369683;32;33965;-84
2021/12/13 08:11:32;;;;;;;;;;;;;;;3.66;62.44;100626.25;4369550;32;34018;-83
2021/12/13 08:14:02;;;;;;;;;;;;;;;3.65;62.39;100622.78;4366626;32;35038;-82
2021/12/13 08:16:57;;;;;;;;;;;;;;;3.89;61.70;100623.25;4376627;32;34431;-83
2021/12/13 08:19:55;;;;;;;;;;;;;;;3.84;61.62;100634.03;4369857;32;33636;-80
2021/12/13 08:22:28;;;;;;;;;;;;;;;3.77;61.98;100637.91;4363943;32;32877;-83
2021/12/13 08:24:58;;;;;;;;;;;;;;;4.22;60.83;100642.47;4373598;32;34738;-80
2021/12/13 08:27:48;;;;;;;;;;;;;;;4.07;61.05;100633.63;4376872;32;36215;-82
2021/12/13 08:30:18;;;;;;;;;;;;;;;4.17;61.21;100640.09;4365563;32;33739;-83
2021/12/13 08:33:03;;;;;;;;;;;;;;;4.49;60.38;100638.31;4344993;32;34134;-83
2021/12/13 08:35:55;;;;;;;;;;;;;;;4.82;59.34;100642.53;4371360;32;36261;-81
2021/12/13 08:38:42;;;;;;;;;;;;;;;4.54;59.88;100642.38;4355114;32;35461;-83
2021/12/13 08:41:16;;;;;;;;;;;;;;;4.68;59.54;100647.75;4370321;32;32946;-82
2021/12/13 08:43:44;;;;;;;;;;;;;;;4.72;59.50;100640.53;4371840;32;34994;-81
2021/12/13 08:46:12;;;;;;;;;;;;;;;4.68;59.31;100649.50;4374795;32;36167;-81
2021/12/13 08:48:50;;;;;;;;;;;;;;;4.37;60.25;100657.44;4364750;32;34353;-81
2021/12/13 08:51:31;;;;;;;;;;;;;;;4.79;59.40;100649.78;4365949;32;33157;-83
2021/12/13 08:54:45;;;;;;;;;;;;;;;4.69;59.62;100648.56;4370127;32;33402;-80
2021/12/13 08:57:32;;;;;;;;;;;;;;;5.11;58.48;100654.03;4370813;32;34922;-81
2021/12/13 09:00:00;;;;;;;;;;;;;;;5.07;58.33;100650.72;4354254;32;34809;-82
2021/12/13 09:02:29;;;;;;;;;;;;;;;5.08;58.39;100652.41;4364212;32;33446;-80
2021/12/13 09:04:59;;;;;;;;;;;;;;;5.14;57.90;100652.06;4388230;32;33635;-82
2021/12/13 09:07:27;;;;;;;;;;;;;;;5.53;57.53;100641.78;4365510;32;34459;-82
2021/12/13 09:09:55;;;;;;;;;;;;;;;5.51;56.64;100648.94;4374169;32;35481;-81
2021/12/13 09:12:45;;;;;;;;;;;;;;;5.47;56.82;100644.78;4370938;32;33358;-81
2021/12/13 09:15:17;;;;;;;;;;;;;;;5.55;56.72;100642.53;4359705;32;34004;-80
2021/12/13 09:17:47;;;;;;;;;;;;;;;5.43;57.14;100643.28;4366273;32;35272;-82
2021/12/13 09:20:14;;;;;;;;;;;;;;;5.55;56.56;100642.53;4373566;32;33389;-82
2021/12/13 09:22:42;;;;;;;;;;;;;;;5.46;56.67;100648.38;4372421;32;33719;-81
2021/12/13 09:25:12;;;;;;;;;;;;;;;5.40;56.64;100648.75;4368303;32;33757;-81
2021/12/13 09:27:49;;;;;;;;;;;;;;;5.71;56.26;100652.06;4375447;32;35518;-82
2021/12/13 09:30:35;;;;;;;;;;;;;;;5.85;55.70;100649.47;4369280;32;34153;-81
2021/12/13 09:33:23;;;;;;;;;;;;;;;5.97;55.85;100650.53;4369700;32;34324;-82
2021/12/13 09:35:52;;;;;;;;;;;;;;;6.27;55.03;100638.03;4368503;32;34536;-82
2021/12/13 09:38:25;;;;;;;;;;;;;;;6.22;54.71;100635.69;4364901;32;36289;-82
2021/12/13 09:41:11;;;;;;;;;;;;;;;6.15;54.91;100638.81;4358960;32;32918;-83
2021/12/13 09:43:45;;;;;;;;;;;;;;;6.01;55.22;100638.81;4375664;32;33922;-82
2021/12/13 09:46:15;;;;;;;;;;;;;;;6.08;55.06;100637.50;4367568;32;34384;-83
2021/12/13 09:48:47;;;;;;;;;;;;;;;6.19;54.60;100638.53;4370990;32;35236;-80
2021/12/13 09:51:17;;;;;;;;;;;;;;;6.13;55.24;100636.25;4368555;32;34899;-81
2021/12/13 09:53:46;;;;;;;;;;;;;;;6.22;55.12;100634.81;4370991;32;32247;-79
2021/12/13 09:56:14;;;;;;;;;;;;;;;6.13;54.67;100627.47;4367674;32;34381;-82
2021/12/13 09:58:42;;;;;;;;;;;;;;;6.14;54.64;100631.84;4367204;32;34704;-83
2021/12/13 10:01:22;;;;;;;;;;;;;;;6.50;54.28;100622.41;4368586;32;34260;-82
2021/12/13 10:04:00;;;;;;;;;;;;;;;6.60;54.12;100617.38;4373315;32;33078;-82
2021/12/13 10:06:35;;;;;;;;;;;;;;;6.64;54.16;100617.06;4368893;32;35158;-81
2021/12/13 10:09:06;;;;;;;;;;;;;;;6.37;54.41;100615.38;4368696;32;35057;-83
2021/12/13 10:11:39;;;;;;;;;;;;;;;6.27;54.50;100617.75;4368862;32;35476;-81
2021/12/13 10:14:09;;;;;;;;;;;;;;;6.35;54.89;100623.37;4365097;32;34170;-82
2021/12/13 10:16:39;;;;;;;;;;;;;;;6.26;54.91;100613.37;4380680;32;34853;-81
2021/12/13 10:19:08;;;;;;;;;;;;;;;5.98;55.05;100612.59;4368563;32;35251;-81
2021/12/13 10:21:37;;;;;;;;;;;;;;;6.39;55.06;100616.09;4363587;32;34205;-82
2021/12/13 10:24:07;;;;;;;;;;;;;;;6.26;54.66;100613.37;4363765;32;34558;-82
2021/12/13 10:26:36;;;;;;;;;;;;;;;6.17;54.59;100618.44;4360002;32;33214;-81
2021/12/13 10:29:05;;;;;;;;;;;;;;;6.24;54.76;100610.00;4374095;32;35477;-83
2021/12/13 10:31:52;;;;;;;;;;;;;;;6.34;55.08;100626.13;4371166;32;34825;-81
2021/12/13 10:34:24;;;;;;;;;;;;;;;6.59;54.14;100613.87;4369094;32;35134;-80
2021/12/13 10:36:53;;;;;;;;;;;;;;;6.56;54.09;100616.75;4373363;32;34097;-83
2021/12/13 10:39:26;;;;;;;;;;;;;;;6.55;53.99;100612.41;4367416;32;35682;-79
2021/12/13 10:42:06;;;;;;;;;;;;;;;6.52;54.56;100617.88;4384245;32;34663;-79
2021/12/13 10:44:34;;;;;;;;;;;;;;;6.69;53.66;100604.41;4370143;32;33430;-80
2021/12/13 10:47:04;;;;;;;;;;;;;;;6.73;52.63;100602.41;4368543;32;34697;-82
2021/12/13 10:49:33;;;;;;;;;;;;;;;6.56;52.84;100600.88;4374851;32;35357;-80
2021/12/13 10:52:06;;;;;;;;;;;;;;;6.57;52.33;100602.56;4368141;32;34005;-81
2021/12/13 10:54:35;;;;;;;;;;;;;;;6.41;53.06;100599.22;4369950;32;33171;-81
2021/12/13 10:57:07;;;;;;;;;;;;;;;6.61;52.83;100600.56;4362942;32;35315;-80
2021/12/13 10:59:34;;;;;;;;;;;;;;;6.40;53.46;100596.66;4373874;32;35892;-81
2021/12/13 11:02:06;;;;;;;;;;;;;;;6.58;52.64;100595.47;4369506;32;34110;-81
2021/12/13 11:04:40;;;;;;;;;;;;;;;7.20;51.38;100592.16;4367791;32;33914;-81
2021/12/13 11:07:08;;;;;;;;;;;;;;;7.02;51.11;100594.25;4367585;32;34845;-81
2021/12/13 11:09:37;;;;;;;;;;;;;;;7.05;51.79;100587.88;4367452;32;34632;-80
2021/12/13 11:12:07;;;;;;;;;;;;;;;7.41;51.51;100588.91;4357065;32;33191;-81
2021/12/13 11:14:35;;;;;;;;;;;;;;;7.32;51.35;100589.53;4368037;32;34838;-81
2021/12/13 11:17:05;;;;;;;;;;;;;;;7.47;51.04;100590.28;4369197;32;32804;-82
2021/12/13 11:19:34;;;;;;;;;;;;;;;7.66;51.00;100588.88;4369588;32;34719;-82
2021/12/13 11:22:04;;;;;;;;;;;;;;;7.89;50.52;100595.22;4362920;32;34365;-81
2021/12/13 11:24:36;;;;;;;;;;;;;;;7.87;50.87;100591.81;4358233;32;32538;-81
2021/12/13 11:27:06;;;;;;;;;;;;;;;8.05;50.25;100590.53;4370732;32;34296;-82
2021/12/13 11:29:35;;;;;;;;;;;;;;;8.27;50.00;100596.87;4363771;32;34608;-84
2021/12/13 11:32:30;;;;;;;;;;;;;;;7.95;51.07;100600.94;4346760;32;892075;-81
2021/12/13 11:35:05;;;;;;;;;;;;;;;8.32;50.60;100593.88;4367808;32;32960;-82
2021/12/13 11:37:41;;;;;;;;;;;;;;;7.85;51.17;100604.34;4364590;32;33193;-83
2021/12/13 11:40:12;;;;;;;;;;;;;;;7.73;51.59;100597.25;4358348;32;34635;-82
2021/12/13 11:42:47;;;;;;;;;;;;;;;8.41;50.44;100599.37;4355544;32;34566;-81
2021/12/13 11:45:34;;;;;;;;;;;;;;;8.36;50.23;100590.91;4369793;32;34171;-82
2021/12/13 11:48:05;;;;;;;;;;;;;;;8.04;50.09;100594.13;4368467;32;33167;-82
2021/12/13 11:50:54;;;;;;;;;;;;;;;8.15;50.62;100586.25;4370394;32;33435;-82
2021/12/13 11:53:33;;;;;;;;;;;;;;;8.56;49.79;100584.97;4368941;32;34519;-82
2021/12/13 11:56:20;;;;;;;;;;;;;;;8.51;49.40;100585.31;4369156;32;33561;-85
2021/12/13 11:59:04;;;;;;;;;;;;;;;8.40;49.32;100579.09;4376634;32;33764;-81
2021/12/13 12:01:51;;;;;;;;;;;;;;;8.57;49.20;100576.94;4366121;32;35865;-80
2021/12/13 12:04:38;;;;;;;;;;;;;;;8.32;50.66;100577.97;4354109;32;33852;-82
2021/12/13 12:07:14;;;;;;;;;;;;;;;8.08;50.12;100577.03;4367660;32;33489;-81
2021/12/13 12:09:45;;;;;;;;;;;;;;;7.87;51.18;100578.59;4373055;32;33610;-81
2021/12/13 12:12:12;;;;;;;;;;;;;;;7.61;51.45;100576.91;4380461;32;34290;-81
2021/12/13 12:14:40;;;;;;;;;;;;;;;7.53;51.38;100577.44;4369357;32;32959;-85
2021/12/13 12:17:08;;;;;;;;;;;;;;;7.58;50.77;100574.47;4373271;32;31673;-83
2021/12/13 12:19:42;;;;;;;;;;;;;;;7.90;51.11;100570.41;4380509;32;32686;-80
2021/12/13 12:22:15;;;;;;;;;;;;;;;7.69;50.45;100582.53;4365221;32;34728;-81
2021/12/13 12:24:45;;;;;;;;;;;;;;;7.59;50.83;100573.53;4361479;32;34300;-82
2021/12/13 12:27:23;;;;;;;;;;;;;;;8.11;49.68;100569.72;4367019;32;33009;-83
2021/12/13 12:29:53;;;;;;;;;;;;;;;7.91;49.86;100575.59;4367149;32;33419;-82
2021/12/13 12:32:22;;;;;;;;;;;;;;;7.99;49.63;100578.56;4363380;32;35178;-81
2021/12/13 12:34:55;;;;;;;;;;;;;;;8.18;49.19;100571.00;4373319;32;35340;-81
2021/12/13 12:37:49;;;;;;;;;;;;;;;7.85;49.99;100573.38;4365687;32;33646;-81
2021/12/13 12:40:22;;;;;;;;;;;;;;;8.53;49.07;100571.97;4374272;32;34596;-82
2021/12/13 12:42:50;;;;;;;;;;;;;;;8.07;49.82;100576.22;4368543;32;35822;-82
2021/12/13 12:45:18;;;;;;;;;;;;;;;8.42;49.98;100576.34;4365860;32;32954;-82
2021/12/13 12:47:57;;;;;;;;;;;;;;;8.45;49.38;100572.50;4364904;32;31062;-83
2021/12/13 12:50:27;;;;;;;;;;;;;;;8.15;49.58;100573.88;4373706;32;33698;-82
2021/12/13 12:52:55;;;;;;;;;;;;;;;7.67;51.71;100576.50;4371816;32;34640;-83
2021/12/13 12:55:34;;;;;;;;;;;;;;;7.99;50.45;100575.91;4373756;32;34854;-82
2021/12/13 12:58:10;;;;;;;;;;;;;;;8.07;49.79;100570.91;4364193;32;31477;-83
2021/12/13 13:00:38;;;;;;;;;;;;;;;8.12;49.96;100566.13;4370130;32;33008;-83
2021/12/13 13:03:06;;;;;;;;;;;;;;;8.38;49.23;100581.03;4380967;32;35586;-83
2021/12/13 13:05:34;;;;;;;;;;;;;;;8.60;49.27;100571.38;4365408;32;34590;-83
2021/12/13 13:08:01;;;;;;;;;;;;;;;8.54;49.40;100577.13;4369153;32;34582;-81
2021/12/13 13:13:02;;;;;;;;;;;;;;;8.82;48.35;100586.56;4369400;32;33938;-82
2021/12/13 13:15:31;;;;;;;;;;;;;;;9.16;47.66;100580.44;4370114;32;33821;-82
2021/12/13 13:18:02;;;;;;;;;;;;;;;9.39;46.88;100590.13;4363977;32;33027;-81
2021/12/13 13:20:31;;;;;;;;;;;;;;;9.83;45.68;100590.19;4370289;32;32887;-81
2021/12/13 13:22:58;;;;;;;;;;;;;;;10.90;42.48;100596.44;4368603;32;34137;-83
2021/12/13 13:25:30;;;;;;;;;;;;;;;11.07;42.82;100592.34;4368200;32;34064;-83
2021/12/13 13:27:58;;;;;;;;;;;;;;;10.01;43.88;100599.37;4369044;32;33441;-83
2021/12/13 13:30:28;;;;;;;;;;;;;;;9.28;46.26;100603.37;4367997;32;34847;-82
2021/12/13 13:32:55;;;;;;;;;;;;;;;10.44;44.11;100609.16;4379853;32;34661;-82
2021/12/13 13:35:23;;;;;;;;;;;;;;;11.54;41.12;100601.53;4374997;32;34033;-82
2021/12/13 13:38:03;;;;;;;;;;;;;;;10.82;42.09;100606.00;4369938;32;32779;-82
2021/12/13 13:40:32;;;;;;;;;;;;;;;11.82;40.23;100605.38;4374061;32;33964;-83
2021/12/13 13:43:01;;;;;;;;;;;;;;;12.66;38.70;100600.47;4367890;32;35897;-83
2021/12/13 13:45:30;;;;;;;;;;;;;;;12.57;38.41;100602.13;4369290;32;33750;-83
2021/12/13 13:48:03;;;;;;;;;;;;;;;12.78;38.11;100615.38;4368065;32;33610;-82
2021/12/13 13:50:34;;;;;;;;;;;;;;;12.41;38.74;100612.50;4363002;32;33811;-82
2021/12/13 13:53:10;;;;;;;;;;;;;;;12.28;38.36;100605.72;4382790;32;35133;-82
2021/12/13 13:55:39;;;;;;;;;;;;;;;11.87;39.48;100606.69;4361338;32;35123;-81
2021/12/13 13:58:08;;;;;;;;;;;;;;;11.84;39.00;100612.25;4377225;32;33831;-83
2021/12/13 14:00:38;;;;;;;;;;;;;;;10.76;41.25;100617.16;4365973;32;33265;-81
2021/12/13 14:03:06;;;;;;;;;;;;;;;10.15;42.59;100620.41;4376380;32;34578;-83
2021/12/13 14:05:35;;;;;;;;;;;;;;;10.19;42.98;100622.69;4367871;32;35593;-82
2021/12/13 14:08:02;;;;;;;;;;;;;;;9.55;44.83;100628.66;4369072;32;33376;-81
2021/12/13 14:10:31;;;;;;;;;;;;;;;10.17;43.55;100624.66;4362861;32;33748;-82
2021/12/13 14:13:03;;;;;;;;;;;;;;;9.46;44.26;100626.72;4366401;32;35228;-82
2021/12/13 14:15:32;;;;;;;;;;;;;;;9.66;44.41;100618.03;4375460;32;34205;-82
2021/12/13 14:18:15;;;;;;;;;;;;;;;9.67;44.32;100622.44;4368295;32;33011;-83
2021/12/13 14:20:47;;;;;;;;;;;;;;;9.29;44.60;100623.66;4368910;32;33668;-83